createdAt,value
2023-03-23T00:01:55.789Z,32.53
2023-03-23T00:05:56.146Z,32.51
2023-03-23T00:09:56.523Z,32.48
2023-03-23T00:13:56.888Z,32.52
2023-03-23T00:17:57.249Z,32.53
2023-03-23T00:21:57.624Z,32.55
2023-03-23T00:25:58.072Z,32.48
2023-03-23T00:29:58.398Z,32.48
2023-03-23T00:33:58.755Z,32.42
2023-03-23T00:37:59.462Z,32.48
2023-03-23T00:41:59.482Z,32.48
2023-03-23T00:45:59.846Z,32.52
2023-03-23T00:50:00.226Z,32.47
2023-03-23T00:54:00.595Z,32.45
2023-03-23T00:58:00.964Z,32.45
2023-03-23T01:02:01.358Z,32.46
2023-03-23T01:06:01.737Z,32.45
2023-03-23T01:10:02.091Z,32.43
2023-03-23T01:14:02.449Z,32.45
2023-03-23T01:18:02.835Z,32.47
2023-03-23T01:22:03.296Z,32.53
2023-03-23T01:26:04.469Z,32.48
2023-03-23T01:30:04.059Z,32.51
2023-03-23T01:34:04.380Z,32.52
2023-03-23T01:38:04.811Z,32.51
2023-03-23T01:42:05.206Z,32.51
2023-03-23T01:46:05.678Z,32.51
2023-03-23T01:50:06.031Z,32.52
2023-03-23T01:54:06.436Z,32.52
2023-03-23T01:58:06.846Z,32.56
2023-03-23T02:02:07.320Z,32.53
2023-03-23T02:06:07.658Z,32.56
2023-03-23T02:10:08.070Z,32.56
2023-03-23T02:14:08.471Z,32.59
2023-03-23T02:18:08.869Z,32.69
2023-03-23T02:22:09.240Z,32.72
2023-03-23T02:26:09.655Z,32.67
2023-03-23T02:30:10.049Z,32.64
2023-03-23T02:34:10.431Z,32.58
2023-03-23T02:38:10.794Z,32.54
2023-03-23T02:42:14.414Z,32.57
2023-03-23T02:46:11.409Z,32.57
2023-03-23T02:50:11.655Z,32.49
2023-03-23T02:54:11.890Z,32.53
2023-03-23T02:58:12.128Z,32.52
2023-03-23T03:02:12.349Z,32.53
2023-03-23T03:06:12.573Z,32.57
2023-03-23T03:10:12.863Z,32.61
2023-03-23T03:14:13.011Z,32.62
2023-03-23T03:18:13.231Z,32.60
2023-03-23T03:22:13.452Z,32.72
2023-03-23T03:26:13.673Z,32.70
2023-03-23T03:30:13.918Z,32.69
2023-03-23T03:34:14.149Z,32.73
2023-03-23T03:38:14.369Z,32.66
2023-03-23T03:42:14.585Z,32.64
2023-03-23T03:46:14.799Z,32.61
2023-03-23T03:50:15.542Z,32.55
2023-03-23T03:54:15.382Z,32.54
2023-03-23T03:58:15.709Z,32.49
2023-03-23T04:02:16.047Z,32.48
2023-03-23T04:06:16.358Z,32.51
2023-03-23T04:10:16.694Z,32.50
2023-03-23T05:18:22.056Z,32.60
2023-03-23T05:22:22.424Z,32.59
2023-03-23T05:42:24.577Z,32.54
2023-03-23T05:46:24.578Z,32.54
2023-03-23T05:50:25.083Z,32.56
2023-03-23T05:54:25.346Z,32.48
2023-03-23T05:58:27.744Z,32.49
2023-03-23T06:02:25.948Z,32.46
2023-03-23T06:06:26.174Z,32.46
2023-03-23T06:10:26.388Z,32.37
2023-03-23T06:14:26.620Z,32.44
2023-03-23T06:18:29.587Z,32.42
2023-03-23T06:22:27.089Z,32.37
2023-03-23T06:26:27.327Z,32.40
2023-03-23T06:30:27.568Z,32.33
2023-03-23T06:34:27.872Z,32.40
2023-03-23T06:38:28.028Z,32.28
2023-03-23T06:42:28.261Z,32.27
2023-03-23T06:46:28.539Z,32.28
2023-03-23T06:50:28.725Z,32.25
2023-03-23T06:54:29.605Z,32.21
2023-03-23T06:58:29.245Z,32.23
2023-03-23T07:02:29.494Z,32.15
2023-03-23T07:06:29.774Z,32.10
2023-03-23T07:10:30.009Z,32.15
2023-03-23T07:14:30.276Z,32.06
2023-03-23T07:18:30.528Z,32.05
2023-03-23T07:22:30.790Z,32.03
2023-03-23T07:26:31.145Z,32.01
2023-03-23T07:30:31.401Z,32.01
2023-03-23T07:34:31.572Z,31.95
2023-03-23T07:38:31.926Z,31.91
2023-03-23T07:42:32.283Z,31.88
2023-03-23T07:46:32.671Z,31.84
2023-03-23T07:50:33.019Z,31.87
2023-03-23T07:54:33.407Z,31.92
2023-03-23T07:58:33.811Z,31.91
2023-03-23T08:02:35.296Z,31.88
2023-03-23T08:06:34.393Z,31.88
2023-03-23T08:10:34.724Z,31.92
2023-03-23T08:14:35.140Z,32.02
2023-03-23T08:18:35.390Z,32.00
2023-03-23T08:22:39.474Z,32.02
2023-03-23T08:26:36.983Z,32.03
2023-03-23T08:30:36.292Z,31.98
2023-03-23T08:34:37.099Z,31.96
2023-03-23T08:38:36.717Z,31.96
2023-03-23T08:42:37.144Z,31.96
2023-03-23T08:46:37.224Z,31.90
2023-03-23T08:50:37.462Z,31.95
2023-03-23T08:54:37.771Z,32.02
2023-03-23T08:58:38.085Z,32.02
2023-03-23T09:02:38.383Z,32.06
2023-03-23T09:06:38.700Z,32.03
2023-03-23T09:10:38.959Z,32.11
2023-03-23T09:14:40.155Z,32.08
2023-03-23T09:18:39.550Z,32.07
2023-03-23T09:22:39.866Z,32.06
2023-03-23T09:26:40.126Z,32.06
2023-03-23T09:30:52.832Z,32.08
2023-03-23T09:34:41.662Z,32.10
2023-03-23T09:38:40.902Z,32.06
2023-03-23T09:42:41.149Z,32.08
2023-03-23T09:46:41.375Z,32.03
2023-03-23T09:50:41.615Z,32.09
2023-03-23T09:54:41.827Z,32.06
2023-03-23T09:58:42.061Z,32.05
2023-03-23T10:02:42.296Z,32.14
2023-03-23T10:06:42.534Z,32.06
2023-03-23T10:10:42.761Z,32.05
2023-03-23T10:14:42.995Z,32.11
2023-03-23T10:18:43.237Z,32.07
2023-03-23T10:22:43.581Z,32.11
2023-03-23T10:26:43.868Z,32.11
2023-03-23T10:30:44.203Z,32.14
2023-03-23T10:34:44.435Z,32.10
2023-03-23T10:38:44.795Z,32.12
2023-03-23T10:42:45.101Z,32.14
2023-03-23T10:46:48.170Z,32.16
2023-03-23T10:50:45.754Z,32.21
2023-03-23T10:54:45.987Z,32.26
2023-03-23T10:58:46.205Z,32.21
2023-03-23T11:02:46.418Z,32.26
2023-03-23T11:06:46.653Z,32.25
2023-03-23T11:10:46.885Z,32.24
2023-03-23T11:14:47.086Z,32.24
2023-03-23T11:18:47.312Z,32.24
2023-03-23T11:22:47.549Z,32.21
2023-03-23T11:26:56.846Z,32.19
2023-03-23T11:30:49.011Z,32.16
2023-03-23T11:34:48.241Z,32.10
2023-03-23T11:38:48.731Z,32.01
2023-03-23T11:42:48.929Z,31.97
2023-03-23T11:46:49.155Z,31.95
2023-03-23T11:50:49.446Z,31.86
2023-03-23T11:54:49.579Z,31.88
2023-03-23T11:58:49.792Z,31.86
2023-03-23T12:02:50.001Z,31.81
2023-03-23T12:06:50.219Z,31.82
2023-03-23T12:14:50.638Z,31.74
2023-03-23T12:18:50.852Z,31.33
2023-03-23T12:22:51.054Z,31.41
2023-03-23T12:26:51.386Z,31.28
2023-03-23T12:30:53.052Z,31.05
2023-03-23T12:34:51.866Z,30.89
2023-03-23T12:38:52.125Z,30.79
2023-03-23T12:42:52.343Z,30.66
2023-03-23T12:46:52.698Z,30.51
2023-03-23T12:50:52.836Z,30.42
2023-03-23T12:54:53.023Z,30.40
2023-03-23T12:58:53.779Z,30.48
2023-03-23T13:02:53.237Z,30.66
2023-03-23T13:06:53.407Z,30.41
2023-03-23T13:10:53.569Z,30.38
2023-03-23T13:14:53.637Z,30.73
2023-03-23T13:18:53.763Z,30.83
2023-03-23T13:22:53.911Z,30.95
2023-03-23T13:26:54.274Z,31.07
2023-03-23T13:30:54.387Z,31.05
2023-03-23T13:34:54.778Z,31.01
2023-03-23T13:38:55.142Z,30.72
2023-03-23T13:42:55.298Z,30.61
2023-03-23T13:46:55.446Z,30.54
2023-03-23T13:50:55.579Z,30.35
2023-03-23T13:54:55.710Z,30.29
2023-03-23T13:58:55.848Z,30.22
2023-03-23T14:02:56.007Z,30.23
2023-03-23T14:06:56.153Z,30.25
2023-03-23T14:10:56.270Z,30.14
2023-03-23T14:14:56.402Z,30.13
2023-03-23T14:18:56.528Z,30.10
2023-03-23T14:22:56.650Z,30.09
2023-03-23T14:26:56.755Z,30.02
2023-03-23T14:30:56.850Z,30.08
2023-03-23T14:34:56.961Z,30.11
2023-03-23T14:38:57.130Z,30.22
2023-03-23T14:42:57.175Z,30.24
2023-03-23T14:46:57.290Z,30.20
2023-03-23T14:50:57.389Z,30.40
2023-03-23T14:54:57.512Z,30.54
2023-03-23T14:58:57.794Z,30.60
2023-03-23T15:02:57.794Z,30.68
2023-03-23T15:06:57.923Z,30.67
2023-03-23T15:10:58.083Z,30.78
2023-03-23T15:14:58.199Z,30.90
2023-03-23T15:18:58.370Z,30.95
2023-03-23T15:22:58.582Z,31.09
2023-03-23T15:26:58.666Z,31.17
2023-03-23T15:30:58.810Z,31.22
2023-03-23T15:34:58.976Z,31.23
2023-03-23T15:39:00.132Z,31.29
2023-03-23T15:42:59.362Z,31.41
2023-03-23T15:46:59.602Z,31.48
2023-03-23T15:51:00.724Z,31.50
2023-03-23T15:54:59.895Z,31.61
2023-03-23T15:59:00.303Z,31.69
2023-03-23T16:03:00.774Z,31.69
2023-03-23T16:07:01.099Z,31.83
2023-03-23T16:11:01.498Z,31.81
2023-03-23T16:15:01.871Z,31.83
2023-03-23T16:19:02.256Z,31.94
2023-03-23T16:23:02.683Z,31.99
2023-03-23T16:27:03.060Z,31.97
2023-03-23T16:31:03.386Z,32.02
2023-03-23T16:35:03.572Z,32.06
2023-03-23T16:39:03.785Z,32.06
2023-03-23T16:43:09.325Z,32.09
2023-03-23T16:47:05.212Z,32.12
2023-03-23T16:51:04.392Z,32.21
2023-03-23T16:55:04.598Z,32.24
2023-03-23T16:59:04.811Z,32.26
2023-03-23T17:03:05.091Z,32.25
2023-03-23T17:07:05.230Z,32.30
2023-03-23T17:11:05.435Z,32.31
2023-03-23T17:15:05.707Z,32.30
2023-03-23T17:19:05.875Z,32.41
2023-03-23T17:23:06.110Z,32.42
2023-03-23T17:27:06.341Z,32.32
2023-03-23T17:31:06.684Z,32.42
2023-03-23T17:35:06.836Z,32.46
2023-03-23T17:39:07.016Z,32.48
2023-03-23T17:43:07.354Z,32.39
2023-03-23T17:47:07.700Z,32.51
2023-03-23T17:51:08.098Z,32.50
2023-03-23T17:55:08.425Z,32.57
2023-03-23T17:59:08.723Z,32.51
2023-03-23T18:03:09.158Z,32.53
2023-03-23T18:07:09.576Z,32.50
2023-03-23T18:11:09.954Z,32.46
2023-03-23T18:15:10.329Z,32.46
2023-03-23T18:19:10.742Z,32.46
2023-03-23T18:23:11.115Z,32.46
2023-03-23T18:27:11.545Z,32.45
2023-03-23T18:31:11.963Z,32.39
2023-03-23T18:35:12.396Z,32.36
2023-03-23T18:39:12.844Z,32.42
2023-03-23T18:43:13.275Z,32.32
2023-03-23T18:47:13.731Z,32.36
2023-03-23T18:51:14.184Z,32.26
2023-03-23T18:55:14.721Z,32.34
2023-03-23T18:59:15.118Z,32.34
2023-03-23T19:03:15.734Z,32.29
2023-03-23T19:07:16.073Z,32.31
2023-03-23T19:11:16.584Z,32.32
2023-03-23T19:15:16.802Z,32.32
2023-03-23T19:19:17.031Z,32.32
2023-03-23T19:23:17.273Z,32.29
2023-03-23T19:27:17.504Z,32.32
2023-03-23T19:31:17.761Z,32.30
2023-03-23T19:35:18.668Z,32.32
2023-03-23T19:39:18.274Z,32.35
2023-03-23T19:43:18.398Z,32.29
2023-03-23T19:47:18.686Z,32.29
2023-03-23T19:51:18.975Z,32.29
2023-03-23T19:55:19.410Z,32.32
2023-03-23T19:59:19.635Z,32.25
2023-03-23T20:03:19.941Z,32.31
2023-03-23T20:07:21.333Z,32.25
2023-03-23T20:11:20.319Z,32.25
2023-03-23T20:15:20.946Z,32.24
2023-03-23T20:19:21.454Z,32.24
2023-03-23T20:23:21.131Z,32.26
2023-03-23T20:27:21.371Z,32.28
2023-03-23T20:31:23.977Z,32.24
2023-03-23T20:35:21.836Z,32.25
2023-03-23T20:39:22.072Z,32.25
2023-03-23T20:43:22.303Z,32.23
2023-03-23T20:47:22.604Z,32.24
2023-03-23T20:51:22.794Z,32.24
2023-03-23T20:55:23.038Z,32.26
2023-03-23T20:59:23.270Z,32.22
2023-03-23T21:03:23.515Z,32.18
2023-03-23T21:07:23.962Z,32.21
2023-03-23T21:11:24.972Z,32.16
2023-03-23T21:15:24.281Z,32.18
2023-03-23T21:19:24.586Z,32.16
2023-03-23T21:23:24.787Z,32.16
2023-03-23T21:27:25.139Z,32.16
2023-03-23T21:31:25.526Z,32.15
2023-03-23T21:35:25.843Z,32.18
2023-03-23T21:39:26.103Z,32.15
2023-03-23T21:43:26.376Z,32.11
2023-03-23T21:47:26.747Z,32.10
2023-03-23T21:51:27.123Z,32.11
2023-03-23T21:55:27.517Z,32.12
2023-03-23T21:59:27.818Z,32.11
2023-03-23T22:03:28.190Z,32.08
2023-03-23T22:07:30.353Z,32.15
2023-03-23T22:11:28.702Z,32.08
2023-03-23T22:15:28.950Z,32.10
2023-03-23T22:19:29.272Z,32.11
2023-03-23T22:23:29.469Z,32.06
2023-03-23T22:27:29.742Z,32.12
2023-03-23T22:31:30.060Z,32.09
2023-03-23T22:35:30.306Z,32.10
2023-03-23T22:39:31.014Z,32.08
2023-03-23T22:43:30.757Z,32.08
2023-03-23T22:47:31.051Z,32.11
2023-03-23T22:51:31.253Z,32.04
2023-03-23T22:55:31.506Z,32.03
2023-03-23T22:59:31.758Z,32.07
2023-03-23T23:03:32.031Z,32.05
2023-03-23T23:07:32.308Z,32.07
2023-03-23T23:11:32.559Z,32.05
2023-03-23T23:15:32.810Z,32.06
2023-03-23T23:19:33.097Z,32.04
2023-03-23T23:23:33.363Z,32.06
2023-03-23T23:27:33.622Z,32.04
2023-03-23T23:31:33.897Z,32.01
2023-03-23T23:35:34.279Z,32.08
2023-03-23T23:39:34.480Z,32.02
2023-03-23T23:43:34.766Z,32.05
2023-03-23T23:47:35.103Z,32.05
2023-03-23T23:51:35.329Z,32.15
2023-03-23T23:55:35.595Z,32.08
2023-03-23T23:59:35.885Z,32.09
